Impacts METAR Board INFO
IDs:

KBOS - Boston/Logan Intl, MA, US

Updated at: 0341 UTC 20 Nov 2017
Potential Impact None Slight Moderate High
Time19/15Z 19/16Z 19/17Z 19/18Z 19/19Z 19/20Z 19/21Z 19/22Z 19/23Z 20/00Z 20/01Z 20/02Z 20/03Z
VIS10 10 10 10 10 10 10 10 10 10 10 10 10
CIG45 26 36 -- -- -- -- -- -- -- 41 -- --
CoverOVCOVCOVCSCTSCTSCTSCTFEWCLRFEWOVCSCTFEW
FltCatVFRMVFRVFRVFRVFRVFRVFRVFRVFRVFRVFRVFRVFR
WX-----RA--------------------
WDir200220280270270280270270280270280270290
WSpd14 18 26 18 23 22 22 22 19 20 18 21 12
WGst-- 23 37 34 37 33 40 27 25 27 25 30 --
Raw hourly METARs
KBOS 191454Z 20014KT 10SM SCT016 BKN045 OVC050 14/13 A2914 RMK AO2 RAE54 SLP867 P0004 60009 T01440133 58023
KBOS 191554Z 22018G23KT 10SM FEW016 BKN026 OVC085 15/13 A2912 RMK AO2 SLP860 T01500128
KBOS 191654Z 28026G37KT 10SM -RA FEW018 BKN036 OVC045 10/06 A2917 RMK AO2 PK WND 28042/1641 RAB1559 CIG 029 E SLP877 P0000 T01000056
KBOS 191754Z 27018G34KT 10SM FEW030 SCT060 09/02 A2921 RMK AO2 PK WND 29040/1706 RAE01 SLP889 P0000 60009 T00940022 10156 20089 53023
KBOS 191854Z 27023G37KT 10SM FEW030 SCT060 09/00 A2925 RMK AO2 PK WND 27042/1818 SLP905 T00940000
KBOS 191954Z 28022G33KT 10SM SCT045 08/M01 A2932 RMK AO2 PK WND 28041/1941 PRESRR SLP927 T00831011
KBOS 192054Z 27022G40KT 10SM SCT044 07/M02 A2938 RMK AO2 PK WND 28042/1955 SLP949 T00671022 53059
KBOS 192154Z 27022G27KT 10SM FEW045 06/M03 A2943 RMK AO2 PK WND 27032/2133 SLP966 T00611028
KBOS 192254Z 28019G25KT 10SM CLR 05/M03 A2949 RMK AO2 PK WND 27030/2202 SLP985 T00501033
KBOS 192354Z 27020G27KT 10SM FEW060 FEW080 05/M03 A2953 RMK AO2 PK WND 27031/2326 SLP999 T00501033 10100 20044 51050
KBOS 200054Z 28018G25KT 10SM OVC041 05/M03 A2956 RMK AO2 PK WND 27030/0028 SLP011 T00501033
KBOS 200154Z 27021G30KT 10SM SCT043 04/M05 A2959 RMK AO2 PK WND 29030/0148 SLP020 T00441050
KBOS 200254Z 29012KT 10SM FEW043 04/M05 A2962 RMK AO2 PK WND 28028/0155 SLP028 T00391050 51029